Nakusp, Canada
Current Conditions -  °F | °C
As of 5:00 PM on Wednesday 22 Oct 2014 (Local Time) from CYRV Reporting Station
Light Rain Light Rain  
Wind Chill: 48°   Ceiling: 6500
Heat Index: 48°   Visibility: 9mi
Dew Point: 45°   Wind: 3mph
Humidity: 87%   Direction: 140°SE
Pressure: 29.75"   Gusts: NA
Location:  50.24°N, 117.8°W
Report Text: CYRV 230000Z AUTO 14003KT 050V180 9SM -RA OVC065 09/07 A2975 RMK PRESFR PCPN 0.8MM PAST HR SLP082
Loading
Personal Weather Stations






























Interactive Weather Map New forecast layout! Learn more

10-Day Weather Forecast

Advertisements
Track Severe Weather on mobile